sensor_id;sensor_type;location;lat;lon;timestamp;pressure;altitude;pressure_sealevel;temperature;humidity
75629;BME280;64213;46.452;16.994;2024-02-26T00:00:44;98954.47;;;7.29;100.00
75629;BME280;64213;46.452;16.994;2024-02-26T00:03:49;98965.63;;;7.33;100.00
75629;BME280;64213;46.452;16.994;2024-02-26T00:06:51;98955.72;;;7.36;100.00
75629;BME280;64213;46.452;16.994;2024-02-26T00:09:58;98958.34;;;7.36;100.00
75629;BME280;64213;46.452;16.994;2024-02-26T00:13:00;98954.16;;;7.34;100.00
75629;BME280;64213;46.452;16.994;2024-02-26T00:16:06;98953.84;;;7.26;100.00
75629;BME280;64213;46.452;16.994;2024-02-26T00:19:09;98958.03;;;7.03;100.00
75629;BME280;64213;46.452;16.994;2024-02-26T00:22:13;98952.94;;;6.87;100.00
75629;BME280;64213;46.452;16.994;2024-02-26T00:25:15;98962.59;;;6.73;100.00
75629;BME280;64213;46.452;16.994;2024-02-26T00:28:19;98952.75;;;6.63;100.00
75629;BME280;64213;46.452;16.994;2024-02-26T00:31:24;98959.69;;;6.51;100.00
75629;BME280;64213;46.452;16.994;2024-02-26T00:34:26;98959.50;;;6.40;100.00
75629;BME280;64213;46.452;16.994;2024-02-26T00:37:30;98961.97;;;6.28;100.00
75629;BME280;64213;46.452;16.994;2024-02-26T00:40:33;98957.72;;;6.13;100.00
75629;BME280;64213;46.452;16.994;2024-02-26T00:43:37;98959.97;;;6.05;100.00
75629;BME280;64213;46.452;16.994;2024-02-26T00:46:42;98957.72;;;5.99;100.00
75629;BME280;64213;46.452;16.994;2024-02-26T00:49:45;98957.72;;;5.99;100.00
75629;BME280;64213;46.452;16.994;2024-02-26T00:52:48;98957.06;;;5.95;100.00
75629;BME280;64213;46.452;16.994;2024-02-26T00:55:51;98947.03;;;6.16;100.00
75629;BME280;64213;46.452;16.994;2024-02-26T00:58:54;98952.88;;;6.34;100.00
75629;BME280;64213;46.452;16.994;2024-02-26T01:01:57;98946.19;;;6.43;100.00
75629;BME280;64213;46.452;16.994;2024-02-26T01:05:02;98941.87;;;6.42;100.00
75629;BME280;64213;46.452;16.994;2024-02-26T01:08:05;98949.56;;;6.45;100.00
75629;BME280;64213;46.452;16.994;2024-02-26T01:11:08;98938.84;;;6.48;100.00
75629;BME280;64213;46.452;16.994;2024-02-26T01:14:11;98933.22;;;6.54;100.00
75629;BME280;64213;46.452;16.994;2024-02-26T01:17:14;98928.16;;;6.51;100.00
75629;BME280;64213;46.452;16.994;2024-02-26T01:20:17;98926.13;;;6.42;100.00
75629;BME280;64213;46.452;16.994;2024-02-26T01:23:20;98920.50;;;6.34;100.00
75629;BME280;64213;46.452;16.994;2024-02-26T01:26:24;98922.53;;;6.43;100.00
75629;BME280;64213;46.452;16.994;2024-02-26T01:29:26;98916.28;;;6.31;100.00
75629;BME280;64213;46.452;16.994;2024-02-26T01:32:29;98918.47;;;6.24;100.00
75629;BME280;64213;46.452;16.994;2024-02-26T01:35:32;98907.44;;;6.19;100.00
75629;BME280;64213;46.452;16.994;2024-02-26T01:38:34;98901.31;;;6.46;100.00
75629;BME280;64213;46.452;16.994;2024-02-26T01:41:37;98898.50;;;6.49;100.00
75629;BME280;64213;46.452;16.994;2024-02-26T01:49:08;98893.25;;;6.49;100.00
75629;BME280;64213;46.452;16.994;2024-02-26T01:52:14;98889.16;;;6.45;100.00
75629;BME280;64213;46.452;16.994;2024-02-26T01:55:18;98889.88;;;6.47;100.00
75629;BME280;64213;46.452;16.994;2024-02-26T01:58:22;98886.31;;;6.48;100.00
75629;BME280;64213;46.452;16.994;2024-02-26T02:01:25;98892.28;;;6.50;100.00
75629;BME280;64213;46.452;16.994;2024-02-26T02:04:29;98899.31;;;6.37;100.00
75629;BME280;64213;46.452;16.994;2024-02-26T02:07:32;98894.28;;;6.46;100.00
75629;BME280;64213;46.452;16.994;2024-02-26T02:10:35;98895.06;;;6.61;100.00
75629;BME280;64213;46.452;16.994;2024-02-26T02:13:37;98886.06;;;6.91;100.00
75629;BME280;64213;46.452;16.994;2024-02-26T02:16:40;98894.91;;;6.77;100.00
75629;BME280;64213;46.452;16.994;2024-02-26T02:19:42;98888.63;;;7.18;100.00
75629;BME280;64213;46.452;16.994;2024-02-26T02:22:46;98896.25;;;6.83;100.00
75629;BME280;64213;46.452;16.994;2024-02-26T02:25:48;98904.53;;;6.64;100.00
75629;BME280;64213;46.452;16.994;2024-02-26T02:28:51;98897.47;;;6.51;100.00
75629;BME280;64213;46.452;16.994;2024-02-26T02:31:54;98905.00;;;6.43;100.00
75629;BME280;64213;46.452;16.994;2024-02-26T02:34:58;98893.00;;;6.39;100.00
75629;BME280;64213;46.452;16.994;2024-02-26T02:38:01;98887.44;;;6.44;100.00
75629;BME280;64213;46.452;16.994;2024-02-26T02:41:04;98889.66;;;6.50;100.00
75629;BME280;64213;46.452;16.994;2024-02-26T02:44:06;98887.34;;;6.45;100.00
75629;BME280;64213;46.452;16.994;2024-02-26T02:47:09;98883.19;;;6.56;100.00
75629;BME280;64213;46.452;16.994;2024-02-26T02:50:11;98882.03;;;6.60;100.00
75629;BME280;64213;46.452;16.994;2024-02-26T02:53:14;98885.00;;;6.68;100.00
75629;BME280;64213;46.452;16.994;2024-02-26T02:56:18;98878.91;;;6.67;100.00
75629;BME280;64213;46.452;16.994;2024-02-26T02:59:20;98873.13;;;6.75;100.00
75629;BME280;64213;46.452;16.994;2024-02-26T03:02:23;98869.31;;;6.66;100.00
75629;BME280;64213;46.452;16.994;2024-02-26T03:05:27;98866.16;;;6.61;100.00
75629;BME280;64213;46.452;16.994;2024-02-26T03:08:29;98876.03;;;6.58;100.00
75629;BME280;64213;46.452;16.994;2024-02-26T03:11:32;98871.16;;;7.04;100.00
75629;BME280;64213;46.452;16.994;2024-02-26T03:14:34;98866.63;;;6.81;100.00
75629;BME280;64213;46.452;16.994;2024-02-26T03:17:37;98867.63;;;6.65;100.00
75629;BME280;64213;46.452;16.994;2024-02-26T03:20:40;98861.31;;;6.55;100.00
75629;BME280;64213;46.452;16.994;2024-02-26T03:23:42;98868.66;;;6.50;100.00
75629;BME280;64213;46.452;16.994;2024-02-26T03:26:45;98868.13;;;6.45;100.00
75629;BME280;64213;46.452;16.994;2024-02-26T03:29:47;98868.41;;;6.40;100.00
75629;BME280;64213;46.452;16.994;2024-02-26T03:32:50;98872.19;;;6.36;100.00
75629;BME280;64213;46.452;16.994;2024-02-26T03:35:53;98870.94;;;6.29;100.00
75629;BME280;64213;46.452;16.994;2024-02-26T03:38:56;98872.59;;;6.30;100.00
75629;BME280;64213;46.452;16.994;2024-02-26T03:41:59;98869.12;;;6.29;100.00
75629;BME280;64213;46.452;16.994;2024-02-26T03:45:02;98867.53;;;6.27;100.00
75629;BME280;64213;46.452;16.994;2024-02-26T03:48:05;98870.28;;;6.25;100.00
75629;BME280;64213;46.452;16.994;2024-02-26T03:51:09;98871.53;;;6.20;100.00
75629;BME280;64213;46.452;16.994;2024-02-26T03:54:13;98870.88;;;6.16;100.00
75629;BME280;64213;46.452;16.994;2024-02-26T03:57:16;98869.12;;;6.02;100.00
75629;BME280;64213;46.452;16.994;2024-02-26T04:00:19;98868.31;;;5.88;100.00
75629;BME280;64213;46.452;16.994;2024-02-26T04:03:24;98872.25;;;5.80;100.00
75629;BME280;64213;46.452;16.994;2024-02-26T04:06:27;98875.66;;;5.68;100.00
75629;BME280;64213;46.452;16.994;2024-02-26T04:09:31;98872.16;;;5.82;100.00
75629;BME280;64213;46.452;16.994;2024-02-26T04:12:33;98871.97;;;5.85;100.00
75629;BME280;64213;46.452;16.994;2024-02-26T04:15:36;98877.28;;;5.83;100.00
75629;BME280;64213;46.452;16.994;2024-02-26T04:18:39;98876.75;;;5.93;100.00
75629;BME280;64213;46.452;16.994;2024-02-26T04:21:42;98872.41;;;5.92;100.00
75629;BME280;64213;46.452;16.994;2024-02-26T04:24:44;98874.03;;;5.94;100.00
75629;BME280;64213;46.452;16.994;2024-02-26T04:27:47;98875.03;;;5.92;100.00
75629;BME280;64213;46.452;16.994;2024-02-26T04:30:49;98874.28;;;5.90;100.00
75629;BME280;64213;46.452;16.994;2024-02-26T04:33:52;98879.38;;;5.93;100.00
75629;BME280;64213;46.452;16.994;2024-02-26T04:36:54;98879.72;;;5.87;100.00
75629;BME280;64213;46.452;16.994;2024-02-26T04:40:00;98875.53;;;5.84;100.00
75629;BME280;64213;46.452;16.994;2024-02-26T04:43:03;98872.34;;;5.93;100.00
75629;BME280;64213;46.452;16.994;2024-02-26T04:46:05;98879.53;;;6.04;100.00
75629;BME280;64213;46.452;16.994;2024-02-26T04:49:08;98870.47;;;6.22;100.00
75629;BME280;64213;46.452;16.994;2024-02-26T04:52:11;98870.28;;;6.25;100.00
75629;BME280;64213;46.452;16.994;2024-02-26T04:55:14;98873.28;;;6.46;100.00
75629;BME280;64213;46.452;16.994;2024-02-26T04:58:16;98865.00;;;6.52;100.00
75629;BME280;64213;46.452;16.994;2024-02-26T05:01:19;98865.50;;;6.18;100.00
75629;BME280;64213;46.452;16.994;2024-02-26T05:04:22;98863.22;;;5.99;100.00
75629;BME280;64213;46.452;16.994;2024-02-26T05:07:24;98867.09;;;5.79;100.00
75629;BME280;64213;46.452;16.994;2024-02-26T05:10:27;98873.84;;;5.83;100.00
75629;BME280;64213;46.452;16.994;2024-02-26T05:13:30;98868.97;;;5.77;100.00
75629;BME280;64213;46.452;16.994;2024-02-26T05:16:32;98865.69;;;5.73;100.00
75629;BME280;64213;46.452;16.994;2024-02-26T05:19:35;98871.44;;;5.66;100.00
75629;BME280;64213;46.452;16.994;2024-02-26T05:22:38;98865.81;;;5.57;100.00
75629;BME280;64213;46.452;16.994;2024-02-26T05:25:40;98864.91;;;5.58;100.00
75629;BME280;64213;46.452;16.994;2024-02-26T05:28:43;98866.97;;;5.53;100.00
75629;BME280;64213;46.452;16.994;2024-02-26T05:31:46;98863.97;;;5.45;100.00
75629;BME280;64213;46.452;16.994;2024-02-26T05:34:48;98871.16;;;5.42;100.00
75629;BME280;64213;46.452;16.994;2024-02-26T05:37:51;98868.94;;;5.35;100.00
75629;BME280;64213;46.452;16.994;2024-02-26T05:40:53;98867.63;;;5.28;100.00
75629;BME280;64213;46.452;16.994;2024-02-26T05:43:56;98863.69;;;5.35;100.00
75629;BME280;64213;46.452;16.994;2024-02-26T05:46:59;98867.91;;;5.24;100.00
75629;BME280;64213;46.452;16.994;2024-02-26T05:50:02;98876.59;;;5.10;100.00
75629;BME280;64213;46.452;16.994;2024-02-26T05:53:04;98876.59;;;5.10;100.00
75629;BME280;64213;46.452;16.994;2024-02-26T05:56:07;98868.62;;;4.97;100.00
75629;BME280;64213;46.452;16.994;2024-02-26T05:59:10;98874.72;;;4.83;100.00
75629;BME280;64213;46.452;16.994;2024-02-26T06:02:12;98880.41;;;4.76;100.00
75629;BME280;64213;46.452;16.994;2024-02-26T06:05:15;98885.34;;;4.66;100.00
75629;BME280;64213;46.452;16.994;2024-02-26T06:08:17;98887.56;;;4.58;100.00
75629;BME280;64213;46.452;16.994;2024-02-26T06:11:20;98894.16;;;4.49;100.00
75629;BME280;64213;46.452;16.994;2024-02-26T06:14:25;98897.41;;;4.38;100.00
75629;BME280;64213;46.452;16.994;2024-02-26T06:17:28;98898.69;;;4.31;100.00
75629;BME280;64213;46.452;16.994;2024-02-26T06:20:30;98898.59;;;4.33;100.00
75629;BME280;64213;46.452;16.994;2024-02-26T06:23:33;98900.19;;;4.35;100.00
75629;BME280;64213;46.452;16.994;2024-02-26T06:26:35;98904.66;;;4.33;100.00
75629;BME280;64213;46.452;16.994;2024-02-26T06:37:03;98910.50;;;5.13;100.00
75629;BME280;64213;46.452;16.994;2024-02-26T06:40:07;98922.22;;;5.22;100.00
75629;BME280;64213;46.452;16.994;2024-02-26T06:43:10;98920.53;;;5.35;100.00
75629;BME280;64213;46.452;16.994;2024-02-26T06:50:22;98927.56;;;5.63;100.00
75629;BME280;64213;46.452;16.994;2024-02-26T06:57:11;98927.37;;;5.95;100.00
75629;BME280;64213;46.452;16.994;2024-02-26T07:00:14;98930.06;;;6.08;100.00
75629;BME280;64213;46.452;16.994;2024-02-26T07:03:19;98923.00;;;6.22;100.00
75629;BME280;64213;46.452;16.994;2024-02-26T07:06:22;98931.56;;;6.39;100.00
75629;BME280;64213;46.452;16.994;2024-02-26T07:09:25;98934.87;;;6.55;100.00
75629;BME280;64213;46.452;16.994;2024-02-26T07:12:28;98936.00;;;6.78;100.00
75629;BME280;64213;46.452;16.994;2024-02-26T07:15:30;98940.87;;;6.97;100.00
75629;BME280;64213;46.452;16.994;2024-02-26T07:18:33;98944.84;;;6.90;100.00
75629;BME280;64213;46.452;16.994;2024-02-26T07:21:36;98942.69;;;7.48;100.00
75629;BME280;64213;46.452;16.994;2024-02-26T07:24:38;98936.44;;;8.24;100.00
75629;BME280;64213;46.452;16.994;2024-02-26T07:27:40;98939.44;;;9.02;100.00
75629;BME280;64213;46.452;16.994;2024-02-26T07:30:43;98938.34;;;9.51;100.00
75629;BME280;64213;46.452;16.994;2024-02-26T07:33:46;98935.69;;;10.08;99.48
75629;BME280;64213;46.452;16.994;2024-02-26T07:36:49;98933.41;;;10.69;98.72
75629;BME280;64213;46.452;16.994;2024-02-26T07:39:51;98940.16;;;11.88;89.94
75629;BME280;64213;46.452;16.994;2024-02-26T07:42:54;98944.00;;;12.14;87.86
75629;BME280;64213;46.452;16.994;2024-02-26T07:45:57;98942.25;;;12.53;86.47
75629;BME280;64213;46.452;16.994;2024-02-26T07:49:00;98946.47;;;12.75;77.20
75629;BME280;64213;46.452;16.994;2024-02-26T07:52:03;98954.13;;;12.59;77.94
75629;BME280;64213;46.452;16.994;2024-02-26T07:55:06;98943.69;;;12.67;81.00
75629;BME280;64213;46.452;16.994;2024-02-26T07:58:09;98946.75;;;13.01;76.69
75629;BME280;64213;46.452;16.994;2024-02-26T08:01:14;98948.63;;;13.67;77.15
75629;BME280;64213;46.452;16.994;2024-02-26T08:04:18;98951.88;;;13.52;71.12
75629;BME280;64213;46.452;16.994;2024-02-26T08:07:21;98961.16;;;12.99;72.02
75629;BME280;64213;46.452;16.994;2024-02-26T08:10:24;98957.22;;;13.22;72.19
75629;BME280;64213;46.452;16.994;2024-02-26T08:13:27;98963.50;;;13.21;68.74
75629;BME280;64213;46.452;16.994;2024-02-26T08:16:30;98957.50;;;13.39;68.81
75629;BME280;64213;46.452;16.994;2024-02-26T08:19:35;98960.91;;;13.68;67.97
75629;BME280;64213;46.452;16.994;2024-02-26T08:22:38;98962.34;;;13.63;64.35
75629;BME280;64213;46.452;16.994;2024-02-26T08:25:41;98962.22;;;13.55;67.46
75629;BME280;64213;46.452;16.994;2024-02-26T08:28:44;98972.47;;;13.87;64.21
75629;BME280;64213;46.452;16.994;2024-02-26T08:31:46;98967.41;;;13.17;64.66
75629;BME280;64213;46.452;16.994;2024-02-26T08:34:50;98971.34;;;12.94;66.26
75629;BME280;64213;46.452;16.994;2024-02-26T08:37:52;98980.13;;;12.94;65.03
75629;BME280;64213;46.452;16.994;2024-02-26T08:40:55;98976.62;;;13.23;64.55
75629;BME280;64213;46.452;16.994;2024-02-26T08:43:57;98967.81;;;13.99;62.79
75629;BME280;64213;46.452;16.994;2024-02-26T08:47:00;98972.94;;;14.10;60.24
75629;BME280;64213;46.452;16.994;2024-02-26T08:50:03;98978.63;;;13.40;61.68
75629;BME280;64213;46.452;16.994;2024-02-26T08:53:06;98980.28;;;13.22;63.01
75629;BME280;64213;46.452;16.994;2024-02-26T08:56:11;98983.34;;;12.98;62.74
75629;BME280;64213;46.452;16.994;2024-02-26T08:59:20;98987.00;;;13.36;61.92
75629;BME280;64213;46.452;16.994;2024-02-26T09:02:25;98984.66;;;14.17;59.95
75629;BME280;64213;46.452;16.994;2024-02-26T09:05:27;98998.03;;;13.51;59.69
75629;BME280;64213;46.452;16.994;2024-02-26T09:08:29;98994.81;;;13.18;60.84
75629;BME280;64213;46.452;16.994;2024-02-26T09:11:32;98980.53;;;13.58;60.78
75629;BME280;64213;46.452;16.994;2024-02-26T09:14:35;98987.22;;;13.62;60.25
75629;BME280;64213;46.452;16.994;2024-02-26T09:17:37;98990.59;;;13.64;60.18
75629;BME280;64213;46.452;16.994;2024-02-26T09:20:40;98985.88;;;13.95;59.83
75629;BME280;64213;46.452;16.994;2024-02-26T09:23:42;98996.41;;;13.77;59.74
75629;BME280;64213;46.452;16.994;2024-02-26T09:26:46;98988.69;;;13.84;59.42
75629;BME280;64213;46.452;16.994;2024-02-26T09:29:48;98993.50;;;13.70;58.93
75629;BME280;64213;46.452;16.994;2024-02-26T09:32:51;98992.81;;;13.68;59.31
75629;BME280;64213;46.452;16.994;2024-02-26T09:35:53;98995.44;;;13.78;58.40
75629;BME280;64213;46.452;16.994;2024-02-26T09:38:56;98988.13;;;14.27;57.60
75629;BME280;64213;46.452;16.994;2024-02-26T09:42:04;98986.03;;;14.21;57.15
75629;BME280;64213;46.452;16.994;2024-02-26T09:45:10;98986.19;;;14.19;55.91
75629;BME280;64213;46.452;16.994;2024-02-26T09:48:15;98987.72;;;14.50;55.21
75629;BME280;64213;46.452;16.994;2024-02-26T09:51:19;98986.03;;;14.94;53.30
75629;BME280;64213;46.452;16.994;2024-02-26T09:54:26;98983.62;;;15.45;52.54
75629;BME280;64213;46.452;16.994;2024-02-26T09:57:31;98981.53;;;15.56;51.84
75629;BME280;64213;46.452;16.994;2024-02-26T10:00:37;98986.84;;;15.30;49.65
75629;BME280;64213;46.452;16.994;2024-02-26T10:03:42;98983.03;;;16.03;48.05
75629;BME280;64213;46.452;16.994;2024-02-26T10:06:47;98985.22;;;15.81;48.21
75629;BME280;64213;46.452;16.994;2024-02-26T10:09:52;98980.59;;;15.66;47.41
75629;BME280;64213;46.452;16.994;2024-02-26T10:12:54;98989.81;;;15.97;47.05
75629;BME280;64213;46.452;16.994;2024-02-26T10:15:57;98991.47;;;15.90;46.10
75629;BME280;64213;46.452;16.994;2024-02-26T10:19:01;98988.03;;;16.48;44.80
75629;BME280;64213;46.452;16.994;2024-02-26T10:22:03;98988.50;;;16.36;44.15
75629;BME280;64213;46.452;16.994;2024-02-26T10:25:06;98992.78;;;16.63;44.49
75629;BME280;64213;46.452;16.994;2024-02-26T10:28:10;98980.84;;;16.41;44.17
75629;BME280;64213;46.452;16.994;2024-02-26T10:31:16;98986.69;;;17.03;42.63
75629;BME280;64213;46.452;16.994;2024-02-26T10:34:19;98987.00;;;17.16;40.91
75629;BME280;64213;46.452;16.994;2024-02-26T10:37:23;98983.84;;;17.05;41.20
75629;BME280;64213;46.452;16.994;2024-02-26T10:40:30;98989.69;;;17.57;39.32
75629;BME280;64213;46.452;16.994;2024-02-26T10:43:33;98984.19;;;17.34;39.01
75629;BME280;64213;46.452;16.994;2024-02-26T10:46:36;98976.12;;;17.92;37.93
75629;BME280;64213;46.452;16.994;2024-02-26T10:49:45;98971.47;;;18.25;37.58
75629;BME280;64213;46.452;16.994;2024-02-26T10:52:48;98979.31;;;17.62;37.19
75629;BME280;64213;46.452;16.994;2024-02-26T10:55:57;98979.16;;;17.56;37.36
75629;BME280;64213;46.452;16.994;2024-02-26T10:59:00;98975.84;;;17.37;38.09
75629;BME280;64213;46.452;16.994;2024-02-26T11:02:03;98958.94;;;17.45;38.24
75629;BME280;64213;46.452;16.994;2024-02-26T11:05:07;98960.06;;;17.75;38.06
75629;BME280;64213;46.452;16.994;2024-02-26T11:08:11;98957.47;;;17.42;38.44
75629;BME280;64213;46.452;16.994;2024-02-26T11:11:14;98948.19;;;18.33;37.90
75629;BME280;64213;46.452;16.994;2024-02-26T11:14:17;98939.94;;;18.74;37.08
75629;BME280;64213;46.452;16.994;2024-02-26T11:17:25;98952.81;;;18.48;36.94
75629;BME280;64213;46.452;16.994;2024-02-26T11:20:31;98958.47;;;18.53;36.02
75629;BME280;64213;46.452;16.994;2024-02-26T11:23:34;98941.25;;;18.16;36.43
75629;BME280;64213;46.452;16.994;2024-02-26T11:26:45;98952.84;;;18.40;36.31
75629;BME280;64213;46.452;16.994;2024-02-26T11:29:52;98946.09;;;17.49;36.49
75629;BME280;64213;46.452;16.994;2024-02-26T11:32:55;98934.53;;;17.48;36.50
75629;BME280;64213;46.452;16.994;2024-02-26T11:35:57;98942.09;;;17.28;36.04
75629;BME280;64213;46.452;16.994;2024-02-26T11:39:00;98937.53;;;16.63;36.83
75629;BME280;64213;46.452;16.994;2024-02-26T11:42:07;98925.22;;;16.79;36.74
75629;BME280;64213;46.452;16.994;2024-02-26T11:48:50;98912.78;;;18.15;33.74
75629;BME280;64213;46.452;16.994;2024-02-26T11:51:54;98921.69;;;18.16;34.09
75629;BME280;64213;46.452;16.994;2024-02-26T11:55:06;98915.19;;;17.22;34.50
75629;BME280;64213;46.452;16.994;2024-02-26T11:58:11;98917.41;;;16.85;34.29
75629;BME280;64213;46.452;16.994;2024-02-26T12:01:39;98900.94;;;16.56;35.15
75629;BME280;64213;46.452;16.994;2024-02-26T12:04:41;98902.31;;;16.68;35.33
75629;BME280;64213;46.452;16.994;2024-02-26T12:07:45;98894.06;;;16.37;36.12
75629;BME280;64213;46.452;16.994;2024-02-26T12:10:48;98888.69;;;16.20;37.39
75629;BME280;64213;46.452;16.994;2024-02-26T12:13:51;98886.47;;;16.66;36.89
75629;BME280;64213;46.452;16.994;2024-02-26T12:16:55;98897.91;;;16.26;37.45
75629;BME280;64213;46.452;16.994;2024-02-26T12:20:11;98898.22;;;16.23;37.10
75629;BME280;64213;46.452;16.994;2024-02-26T12:23:15;98891.69;;;16.92;35.90
75629;BME280;64213;46.452;16.994;2024-02-26T12:26:19;98888.31;;;17.23;35.59
75629;BME280;64213;46.452;16.994;2024-02-26T12:29:22;98893.91;;;17.77;34.35
75629;BME280;64213;46.452;16.994;2024-02-26T12:32:24;98886.56;;;17.63;34.24
75629;BME280;64213;46.452;16.994;2024-02-26T12:35:28;98896.00;;;17.10;34.54
75629;BME280;64213;46.452;16.994;2024-02-26T12:38:33;98889.78;;;16.60;35.90
75629;BME280;64213;46.452;16.994;2024-02-26T12:41:38;98885.38;;;15.76;37.26
75629;BME280;64213;46.452;16.994;2024-02-26T12:44:41;98891.59;;;15.58;37.61
75629;BME280;64213;46.452;16.994;2024-02-26T12:47:45;98881.56;;;15.78;37.70
75629;BME280;64213;46.452;16.994;2024-02-26T12:50:52;98881.56;;;15.52;37.87
75629;BME280;64213;46.452;16.994;2024-02-26T12:53:55;98886.75;;;15.54;38.17
75629;BME280;64213;46.452;16.994;2024-02-26T12:57:00;98886.94;;;15.95;37.48
75629;BME280;64213;46.452;16.994;2024-02-26T13:00:05;98886.72;;;16.22;37.09
75629;BME280;64213;46.452;16.994;2024-02-26T13:03:12;98894.03;;;16.20;37.32
75629;BME280;64213;46.452;16.994;2024-02-26T13:06:16;98891.22;;;16.22;37.63
75629;BME280;64213;46.452;16.994;2024-02-26T13:09:19;98888.63;;;15.96;38.04
75629;BME280;64213;46.452;16.994;2024-02-26T13:12:21;98894.75;;;15.88;38.13
75629;BME280;64213;46.452;16.994;2024-02-26T13:15:24;98882.38;;;15.71;38.43
75629;BME280;64213;46.452;16.994;2024-02-26T13:18:27;98885.03;;;15.79;38.61
75629;BME280;64213;46.452;16.994;2024-02-26T13:21:33;98890.28;;;15.63;39.23
75629;BME280;64213;46.452;16.994;2024-02-26T13:24:35;98895.41;;;15.56;39.48
75629;BME280;64213;46.452;16.994;2024-02-26T13:27:41;98897.88;;;15.23;39.47
75629;BME280;64213;46.452;16.994;2024-02-26T13:30:54;98897.25;;;15.29;39.02
75629;BME280;64213;46.452;16.994;2024-02-26T13:33:59;98893.03;;;15.45;38.82
75629;BME280;64213;46.452;16.994;2024-02-26T13:37:02;98903.31;;;15.40;38.88
75629;BME280;64213;46.452;16.994;2024-02-26T13:40:11;98903.63;;;15.37;38.79
75629;BME280;64213;46.452;16.994;2024-02-26T13:43:14;98911.75;;;15.09;38.81
75629;BME280;64213;46.452;16.994;2024-02-26T13:46:16;98918.53;;;14.68;38.93
75629;BME280;64213;46.452;16.994;2024-02-26T13:49:19;98914.75;;;14.70;38.63
75629;BME280;64213;46.452;16.994;2024-02-26T13:52:22;98917.41;;;14.70;38.68
75629;BME280;64213;46.452;16.994;2024-02-26T13:55:28;98915.97;;;14.58;38.50
75629;BME280;64213;46.452;16.994;2024-02-26T13:58:32;98919.94;;;14.72;38.32
75629;BME280;64213;46.452;16.994;2024-02-26T14:01:35;98910.75;;;14.84;38.65
75629;BME280;64213;46.452;16.994;2024-02-26T14:04:37;98915.16;;;14.75;38.61
75629;BME280;64213;46.452;16.994;2024-02-26T14:07:40;98906.09;;;14.68;38.48
75629;BME280;64213;46.452;16.994;2024-02-26T14:10:43;98905.41;;;14.84;38.93
75629;BME280;64213;46.452;16.994;2024-02-26T14:13:46;98902.87;;;14.82;38.87
75629;BME280;64213;46.452;16.994;2024-02-26T14:16:49;98912.47;;;14.75;39.37
75629;BME280;64213;46.452;16.994;2024-02-26T14:19:52;98915.66;;;14.61;39.53
75629;BME280;64213;46.452;16.994;2024-02-26T14:22:54;98915.66;;;14.79;39.39
75629;BME280;64213;46.452;16.994;2024-02-26T14:25:56;98912.41;;;14.85;39.54
75629;BME280;64213;46.452;16.994;2024-02-26T14:28:59;98909.84;;;15.19;39.29
75629;BME280;64213;46.452;16.994;2024-02-26T14:32:01;98910.87;;;15.26;38.87
75629;BME280;64213;46.452;16.994;2024-02-26T14:35:07;98911.59;;;15.10;39.25
75629;BME280;64213;46.452;16.994;2024-02-26T14:38:14;98907.53;;;15.24;39.07
75629;BME280;64213;46.452;16.994;2024-02-26T14:41:17;98907.50;;;15.42;38.63
75629;BME280;64213;46.452;16.994;2024-02-26T14:44:20;98909.88;;;15.53;37.76
75629;BME280;64213;46.452;16.994;2024-02-26T14:47:23;98903.69;;;15.71;37.15
75629;BME280;64213;46.452;16.994;2024-02-26T14:50:25;98912.03;;;15.50;37.45
75629;BME280;64213;46.452;16.994;2024-02-26T14:53:28;98912.56;;;15.27;37.79
75629;BME280;64213;46.452;16.994;2024-02-26T14:56:30;98907.81;;;15.13;37.99
75629;BME280;64213;46.452;16.994;2024-02-26T14:59:33;98902.00;;;15.18;38.08
75629;BME280;64213;46.452;16.994;2024-02-26T15:02:35;98909.47;;;15.40;38.00
75629;BME280;64213;46.452;16.994;2024-02-26T15:05:38;98916.44;;;15.15;38.47
75629;BME280;64213;46.452;16.994;2024-02-26T15:08:40;98916.50;;;14.97;38.64
75629;BME280;64213;46.452;16.994;2024-02-26T15:11:42;98918.06;;;15.08;38.90
75629;BME280;64213;46.452;16.994;2024-02-26T15:14:46;98912.25;;;15.30;38.75
75629;BME280;64213;46.452;16.994;2024-02-26T15:17:48;98910.16;;;15.16;38.91
75629;BME280;64213;46.452;16.994;2024-02-26T15:20:51;98918.91;;;15.08;39.32
75629;BME280;64213;46.452;16.994;2024-02-26T15:23:54;98922.69;;;15.24;39.33
75629;BME280;64213;46.452;16.994;2024-02-26T15:27:08;98930.69;;;15.24;38.80
75629;BME280;64213;46.452;16.994;2024-02-26T15:30:15;98932.81;;;15.20;39.31
75629;BME280;64213;46.452;16.994;2024-02-26T15:33:18;98939.06;;;14.93;39.85
75629;BME280;64213;46.452;16.994;2024-02-26T15:36:21;98942.59;;;14.76;40.34
75629;BME280;64213;46.452;16.994;2024-02-26T15:39:24;98943.06;;;14.43;40.91
75629;BME280;64213;46.452;16.994;2024-02-26T15:42:26;98946.31;;;14.37;41.17
75629;BME280;64213;46.452;16.994;2024-02-26T15:45:29;98949.06;;;14.28;41.64
75629;BME280;64213;46.452;16.994;2024-02-26T15:48:37;98950.47;;;14.22;41.89
75629;BME280;64213;46.452;16.994;2024-02-26T15:51:40;98948.81;;;14.21;42.31
75629;BME280;64213;46.452;16.994;2024-02-26T15:54:43;98947.50;;;14.07;43.65
75629;BME280;64213;46.452;16.994;2024-02-26T15:57:46;98946.00;;;13.95;43.15
75629;BME280;64213;46.452;16.994;2024-02-26T16:00:48;98956.69;;;13.85;43.96
75629;BME280;64213;46.452;16.994;2024-02-26T16:03:52;98959.22;;;13.77;43.89
75629;BME280;64213;46.452;16.994;2024-02-26T16:10:55;98957.87;;;13.63;44.74
75629;BME280;64213;46.452;16.994;2024-02-26T16:17:40;98966.84;;;13.43;45.99
75629;BME280;64213;46.452;16.994;2024-02-26T16:20:49;98963.34;;;13.23;46.38
75629;BME280;64213;46.452;16.994;2024-02-26T16:23:52;98969.22;;;13.17;46.41
75629;BME280;64213;46.452;16.994;2024-02-26T16:26:55;98971.91;;;12.97;46.79
75629;BME280;64213;46.452;16.994;2024-02-26T16:29:57;98974.44;;;12.79;47.46